createdAt,value
2023-02-16T00:03:17.313Z,92
2023-02-16T00:08:33.964Z,82
2023-02-16T00:13:51.030Z,79
2023-02-16T00:19:07.413Z,78
2023-02-16T00:24:24.240Z,80
2023-02-16T00:29:41.052Z,94
2023-02-16T00:34:57.909Z,88
2023-02-16T00:40:14.988Z,80
2023-02-16T00:45:31.215Z,76
2023-02-16T00:50:47.467Z,72
2023-02-16T00:56:03.942Z,72
2023-02-16T01:01:20.450Z,68
2023-02-16T01:06:36.899Z,70
2023-02-16T01:11:53.339Z,68
2023-02-16T01:17:09.802Z,68
2023-02-16T01:22:26.340Z,67
2023-02-16T01:27:42.791Z,62
2023-02-16T01:32:59.885Z,68
2023-02-16T01:38:18.508Z,65
2023-02-16T01:43:33.150Z,68
2023-02-16T01:48:49.601Z,59
2023-02-16T01:54:06.045Z,57
2023-02-16T01:59:23.086Z,67
2023-02-16T02:04:39.559Z,64
2023-02-16T02:09:56.021Z,64
2023-02-16T02:15:13.181Z,106
2023-02-16T02:20:29.646Z,75
2023-02-16T02:25:46.108Z,70
2023-02-16T02:31:03.691Z,69
2023-02-16T02:36:19.632Z,61
2023-02-16T02:41:35.823Z,57
2023-02-16T02:46:52.915Z,70
2023-02-16T02:52:09.935Z,65
2023-02-16T02:57:26.918Z,57
2023-02-16T03:02:43.377Z,52
2023-02-16T03:08:00.128Z,58
2023-02-16T03:13:17.169Z,59
2023-02-16T03:18:34.204Z,54
2023-02-16T03:23:50.412Z,57
2023-02-16T03:29:07.366Z,58
2023-02-16T03:34:24.409Z,54
2023-02-16T03:39:40.867Z,55
2023-02-16T03:44:57.965Z,56
2023-02-16T03:50:14.065Z,60
2023-02-16T03:55:30.536Z,57
2023-02-16T04:00:47.573Z,60
2023-02-16T04:06:03.775Z,55
2023-02-16T04:11:20.194Z,54
2023-02-16T04:16:36.715Z,63
2023-02-16T04:21:53.724Z,69
2023-02-16T04:27:09.951Z,61
2023-02-16T04:32:26.388Z,62
2023-02-16T04:37:42.721Z,62
2023-02-16T04:42:58.961Z,72
2023-02-16T04:48:15.745Z,71
2023-02-16T04:53:31.952Z,62
2023-02-16T04:58:48.745Z,80
2023-02-16T05:04:05.277Z,75
2023-02-16T05:09:21.730Z,57
2023-02-16T05:14:38.186Z,61
2023-02-16T05:19:54.371Z,51
2023-02-16T05:25:10.870Z,52
2023-02-16T05:30:27.460Z,60
2023-02-16T05:35:44.356Z,71
2023-02-16T05:41:02.221Z,76
2023-02-16T05:46:19.076Z,67
2023-02-16T05:51:35.823Z,61
2023-02-16T05:56:52.840Z,71
2023-02-16T06:02:09.298Z,69
2023-02-16T06:07:26.341Z,62
2023-02-16T06:12:44.864Z,71
2023-02-16T06:17:59.715Z,67
2023-02-16T06:23:16.148Z,74
2023-02-16T06:28:33.885Z,85
2023-02-16T06:33:50.552Z,78
2023-02-16T06:39:07.551Z,71
2023-02-16T06:44:24.572Z,74
2023-02-16T06:49:41.638Z,72
2023-02-16T06:54:58.723Z,77
2023-02-16T07:00:15.759Z,80
2023-02-16T07:05:32.838Z,78
2023-02-16T07:10:50.515Z,63
2023-02-16T07:16:06.393Z,72
2023-02-16T07:21:22.815Z,83
2023-02-16T07:26:39.136Z,85
2023-02-16T07:31:55.494Z,91
2023-02-16T07:37:12.165Z,86
2023-02-16T07:42:29.234Z,84
2023-02-16T07:47:46.832Z,89
2023-02-16T07:53:03.748Z,85
2023-02-16T07:58:19.792Z,95
2023-02-16T08:03:36.126Z,138
2023-02-16T08:08:53.175Z,76
2023-02-16T08:14:09.683Z,66
2023-02-16T08:19:26.139Z,73
2023-02-16T08:24:42.333Z,72
2023-02-16T08:29:58.915Z,59
2023-02-16T08:35:16.537Z,59
2023-02-16T08:40:33.532Z,62
2023-02-16T08:45:50.506Z,71
2023-02-16T08:51:07.297Z,63
2023-02-16T08:56:23.796Z,60
2023-02-16T09:01:39.983Z,51
2023-02-16T09:06:56.096Z,56
2023-02-16T09:12:12.767Z,57
2023-02-16T09:17:29.225Z,48
2023-02-16T09:28:03.097Z,58
2023-02-16T09:33:19.520Z,49
2023-02-16T09:38:36.530Z,53
2023-02-16T09:43:53.381Z,60
2023-02-16T09:49:09.715Z,66
2023-02-16T09:54:26.136Z,68
2023-02-16T09:59:42.666Z,75
2023-02-16T10:04:59.099Z,74
2023-02-16T10:10:15.888Z,68
2023-02-16T10:15:32.401Z,70
2023-02-16T10:20:49.473Z,74
2023-02-16T10:26:06.325Z,71
2023-02-16T10:31:23.345Z,87
2023-02-16T10:36:39.973Z,74
2023-02-16T10:41:57.020Z,73
2023-02-16T10:47:14.825Z,72
2023-02-16T10:52:31.715Z,75
2023-02-16T10:57:48.968Z,74
2023-02-16T11:03:06.024Z,73
2023-02-16T11:08:22.564Z,78
2023-02-16T11:13:39.641Z,75
2023-02-16T11:18:56.465Z,74
2023-02-16T11:24:13.509Z,74
2023-02-16T11:29:29.968Z,75
2023-02-16T11:34:47.305Z,75
2023-02-16T11:40:04.239Z,71
2023-02-16T11:45:21.350Z,76
2023-02-16T11:50:37.712Z,71
2023-02-16T11:55:55.037Z,77
2023-02-16T12:01:11.920Z,73
2023-02-16T12:06:28.557Z,72
2023-02-16T12:11:45.298Z,71
2023-02-16T12:17:02.127Z,73
2023-02-16T12:22:18.504Z,73
2023-02-16T12:27:35.687Z,74
2023-02-16T12:32:52.748Z,74
2023-02-16T12:38:09.725Z,74
2023-02-16T12:43:26.800Z,73
2023-02-16T12:48:43.044Z,74
2023-02-16T12:53:59.876Z,76
2023-02-16T12:59:17.499Z,76
2023-02-16T13:04:34.149Z,76
2023-02-16T13:09:51.226Z,75
2023-02-16T13:15:08.173Z,77
2023-02-16T13:20:24.652Z,74
2023-02-16T13:25:41.933Z,73
2023-02-16T13:30:58.791Z,69
2023-02-16T13:36:15.799Z,74
2023-02-16T13:41:33.373Z,75
2023-02-16T13:46:49.807Z,70
2023-02-16T13:52:07.047Z,71
2023-02-16T13:57:23.973Z,70
2023-02-16T14:02:40.669Z,68
2023-02-16T14:07:57.168Z,72
2023-02-16T14:13:14.094Z,75
2023-02-16T14:18:30.505Z,71
2023-02-16T14:23:47.409Z,71
2023-02-16T14:29:03.834Z,71
2023-02-16T14:34:20.300Z,69
2023-02-16T14:39:58.478Z,70
2023-02-16T14:44:53.168Z,72
2023-02-16T14:50:09.428Z,71
2023-02-16T14:55:26.458Z,69
2023-02-16T15:00:43.237Z,72
2023-02-16T15:06:00.189Z,73
2023-02-16T15:11:17.187Z,72
2023-02-16T15:16:33.400Z,72
2023-02-16T15:21:49.834Z,75
2023-02-16T15:27:06.942Z,80
2023-02-16T15:32:23.633Z,79
2023-02-16T15:37:39.856Z,78
2023-02-16T15:42:56.075Z,79
2023-02-16T15:48:12.449Z,82
2023-02-16T15:53:29.832Z,79
2023-02-16T15:58:46.178Z,77
2023-02-16T16:04:03.371Z,80
2023-02-16T16:09:20.319Z,83
2023-02-16T16:14:37.176Z,80
2023-02-16T16:19:54.231Z,79
2023-02-16T16:25:11.285Z,77
2023-02-16T16:30:28.433Z,86
2023-02-16T16:35:45.455Z,87
2023-02-16T16:41:02.691Z,87
2023-02-16T16:46:19.353Z,86
2023-02-16T16:51:36.560Z,85
2023-02-16T16:56:53.662Z,83
2023-02-16T17:02:11.166Z,84
2023-02-16T17:07:27.412Z,86
2023-02-16T17:12:43.630Z,88
2023-02-16T17:18:00.939Z,86
2023-02-16T17:23:18.025Z,88
2023-02-16T17:28:35.068Z,90
2023-02-16T17:33:51.924Z,80
2023-02-16T17:39:08.655Z,88
2023-02-16T17:44:25.721Z,88
2023-02-16T17:49:42.809Z,84
2023-02-16T17:54:59.750Z,88
2023-02-16T18:00:16.947Z,88
2023-02-16T18:05:33.367Z,92
2023-02-16T18:10:49.644Z,114
2023-02-16T18:16:06.391Z,117
2023-02-16T18:21:22.896Z,140
2023-02-16T18:26:39.286Z,159
2023-02-16T18:31:57.131Z,192
2023-02-16T18:37:13.446Z,140
2023-02-16T18:42:30.599Z,137
2023-02-16T18:47:47.645Z,118
2023-02-16T18:53:04.680Z,118
2023-02-16T18:58:21.627Z,140
2023-02-16T19:03:38.944Z,169
2023-02-16T19:08:56.066Z,127
2023-02-16T19:14:12.844Z,138
2023-02-16T19:19:31.002Z,137
2023-02-16T19:24:46.165Z,134
2023-02-16T19:30:02.737Z,122
2023-02-16T19:35:19.603Z,121
2023-02-16T19:40:36.591Z,122
2023-02-16T19:45:53.421Z,184
2023-02-16T19:51:09.757Z,158
2023-02-16T19:56:26.296Z,130
2023-02-16T20:01:43.562Z,119
2023-02-16T20:07:00.265Z,167
2023-02-16T20:12:16.634Z,136
2023-02-16T20:17:33.816Z,154
2023-02-16T20:22:50.952Z,105
2023-02-16T20:28:07.268Z,108
2023-02-16T20:33:24.183Z,119
2023-02-16T20:38:40.474Z,122
2023-02-16T20:43:57.640Z,128
2023-02-16T20:49:14.295Z,131
2023-02-16T20:54:31.461Z,114
2023-02-16T20:59:48.308Z,116
2023-02-16T21:05:05.506Z,105
2023-02-16T21:10:22.274Z,106
2023-02-16T21:15:39.172Z,108
2023-02-16T21:20:55.425Z,108
2023-02-16T21:26:12.369Z,101
2023-02-16T21:31:29.636Z,101
2023-02-16T21:36:45.781Z,101
2023-02-16T21:42:02.148Z,111
2023-02-16T21:47:18.895Z,125
2023-02-16T21:52:35.239Z,121
2023-02-16T21:57:52.452Z,122
2023-02-16T22:03:09.566Z,114
2023-02-16T22:08:25.816Z,119
2023-02-16T22:13:43.182Z,113
2023-02-16T22:19:00.111Z,111
2023-02-16T22:24:16.394Z,96
2023-02-16T22:29:33.227Z,97
2023-02-16T22:34:50.419Z,102
2023-02-16T22:40:07.620Z,100
2023-02-16T22:45:24.023Z,98
2023-02-16T22:50:40.939Z,96
2023-02-16T22:55:57.952Z,93
2023-02-16T23:01:15.380Z,101
2023-02-16T23:06:31.670Z,102
2023-02-16T23:11:49.021Z,97
2023-02-16T23:17:06.231Z,95
2023-02-16T23:22:22.640Z,91
2023-02-16T23:27:38.911Z,107
2023-02-16T23:32:56.053Z,98
2023-02-16T23:38:12.613Z,101
2023-02-16T23:43:29.999Z,99
2023-02-16T23:48:46.714Z,104
2023-02-16T23:54:04.072Z,103
2023-02-16T23:59:20.589Z,105
